createdAt,value
2023-04-22T00:02:03.241Z,27.93
2023-04-22T00:04:30.081Z,20.27
2023-04-22T00:06:56.635Z,24.93
2023-04-22T00:09:23.967Z,22.83
2023-04-22T00:11:51.943Z,24.20
2023-04-22T00:14:18.659Z,23.40
2023-04-22T00:16:45.308Z,26.73
2023-04-22T00:19:11.877Z,25.17
2023-04-22T00:21:38.420Z,25.30
2023-04-22T00:24:05.374Z,27.50
2023-04-22T00:26:31.869Z,27.97
2023-04-22T00:28:58.432Z,29.60
2023-04-22T00:31:25.330Z,26.37
2023-04-22T00:33:51.952Z,26.90
2023-04-22T00:36:18.438Z,24.83
2023-04-22T00:38:49.938Z,26.37
2023-04-22T00:41:17.235Z,31.00
2023-04-22T00:43:44.223Z,27.10
2023-04-22T00:46:10.980Z,25.40
2023-04-22T00:48:37.964Z,24.97
2023-04-22T00:51:05.485Z,26.13
2023-04-22T00:53:32.281Z,28.93
2023-04-22T00:55:59.274Z,26.87
2023-04-22T00:58:29.061Z,28.90
2023-04-22T01:00:56.008Z,25.20
2023-04-22T01:03:24.196Z,29.53
2023-04-22T01:05:51.116Z,33.87
2023-04-22T01:08:17.618Z,25.13
2023-04-22T01:10:44.130Z,28.33
2023-04-22T01:13:10.632Z,33.50
2023-04-22T01:15:37.654Z,32.07
2023-04-22T01:18:04.584Z,32.73
2023-04-22T01:20:31.724Z,30.33
2023-04-22T01:23:00.944Z,30.33
2023-04-22T01:25:28.888Z,33.77
2023-04-22T01:27:56.029Z,35.17
2023-04-22T01:30:22.883Z,39.37
2023-04-22T01:32:50.015Z,35.43
2023-04-22T01:35:16.586Z,38.10
2023-04-22T01:37:43.179Z,32.20
2023-04-22T01:40:11.149Z,30.77
2023-04-22T01:42:37.886Z,34.03
2023-04-22T01:45:04.865Z,33.40
2023-04-22T01:47:31.397Z,33.30
2023-04-22T01:49:57.951Z,31.90
2023-04-22T01:52:26.288Z,30.47
2023-04-22T01:54:52.996Z,35.40
2023-04-22T01:57:19.612Z,34.87
2023-04-22T01:59:46.198Z,31.57
2023-04-22T02:02:12.809Z,36.60
2023-04-22T02:04:39.447Z,29.83
2023-04-22T02:07:05.967Z,27.27
2023-04-22T02:09:33.414Z,29.03
2023-04-22T02:12:01.483Z,29.73
2023-04-22T02:14:28.139Z,30.53
2023-04-22T02:16:54.684Z,24.97
2023-04-22T02:19:21.235Z,26.77
2023-04-22T02:21:47.805Z,26.10
2023-04-22T02:24:14.399Z,33.07
2023-04-22T02:26:41.393Z,30.27
2023-04-22T02:29:07.893Z,32.67
2023-04-22T02:31:34.467Z,33.23
2023-04-22T02:34:01.028Z,30.67
2023-04-22T02:36:28.544Z,34.10
2023-04-22T02:38:55.113Z,30.10
2023-04-22T02:41:21.667Z,30.97
2023-04-22T02:43:48.174Z,30.43
2023-04-22T02:46:18.162Z,31.50
2023-04-22T02:48:44.794Z,31.00
2023-04-22T02:51:11.828Z,27.17
2023-04-22T02:53:38.400Z,28.47
2023-04-22T02:56:05.538Z,37.70
2023-04-22T02:58:32.138Z,29.80
2023-04-22T03:00:58.994Z,32.00
2023-04-22T03:03:25.939Z,36.30
2023-04-22T03:05:52.848Z,32.07
2023-04-22T03:08:19.839Z,34.50
2023-04-22T03:10:46.433Z,33.27
2023-04-22T03:13:14.327Z,31.23
2023-04-22T03:15:41.650Z,33.70
2023-04-22T03:18:08.763Z,34.77
2023-04-22T03:20:35.724Z,36.97
2023-04-22T03:23:02.289Z,33.07
2023-04-22T03:25:28.883Z,33.73
2023-04-22T03:27:55.448Z,31.80
2023-04-22T03:30:22.103Z,31.23
2023-04-22T03:32:48.900Z,34.63
2023-04-22T03:35:15.593Z,32.40
2023-04-22T03:37:42.147Z,34.80
2023-04-22T03:40:09.572Z,30.73
2023-04-22T03:42:36.146Z,32.33
2023-04-22T03:45:02.850Z,31.63
2023-04-22T03:47:29.468Z,36.23
2023-04-22T03:49:57.035Z,36.83
2023-04-22T03:52:23.618Z,34.73
2023-04-22T03:54:50.107Z,33.80
2023-04-22T03:57:16.622Z,36.50
2023-04-22T03:59:43.157Z,37.47
2023-04-22T04:02:09.778Z,35.73
2023-04-22T04:04:36.842Z,31.67
2023-04-22T04:07:03.841Z,34.63
2023-04-22T04:09:30.460Z,39.10
2023-04-22T04:11:58.053Z,36.83
2023-04-22T04:14:24.685Z,33.63
2023-04-22T04:16:51.331Z,31.37
2023-04-22T04:19:17.857Z,30.93
2023-04-22T04:21:45.310Z,36.23
2023-04-22T04:24:11.886Z,37.00
2023-04-22T04:26:38.432Z,35.50
2023-04-22T04:29:06.151Z,35.93
2023-04-22T04:31:32.686Z,39.13
2023-04-22T04:33:59.587Z,33.77
2023-04-22T04:36:29.414Z,40.63
2023-04-22T04:38:56.694Z,37.17
2023-04-22T04:41:23.315Z,30.40
2023-04-22T04:43:50.507Z,34.93
2023-04-22T04:46:17.078Z,37.83
2023-04-22T04:48:45.866Z,38.27
2023-04-22T04:51:12.894Z,37.27
2023-04-22T04:53:40.476Z,37.83
2023-04-22T04:56:07.016Z,37.37
2023-04-22T04:58:33.588Z,36.57
2023-04-22T05:01:00.507Z,36.10
2023-04-22T05:03:27.228Z,38.47
2023-04-22T05:05:54.010Z,38.67
2023-04-22T05:08:20.810Z,37.20
2023-04-22T05:10:47.451Z,35.10
2023-04-22T05:13:13.978Z,33.67
2023-04-22T05:15:40.726Z,36.50
2023-04-22T05:18:07.331Z,31.70
2023-04-22T05:20:36.016Z,28.60
2023-04-22T05:23:03.130Z,33.20
2023-04-22T05:25:29.829Z,30.53
2023-04-22T05:27:56.401Z,33.97
2023-04-22T05:30:23.018Z,35.73
2023-04-22T05:32:49.574Z,33.00
2023-04-22T05:35:16.387Z,28.37
2023-04-22T05:37:42.911Z,24.83
2023-04-22T05:40:09.789Z,26.07
2023-04-22T05:42:36.365Z,25.97
2023-04-22T05:45:03.024Z,26.37
2023-04-22T05:47:30.135Z,29.10
2023-04-22T05:49:56.798Z,25.37
2023-04-22T05:52:23.306Z,26.63
2023-04-22T05:54:49.856Z,23.43
2023-04-22T05:57:16.476Z,22.70
2023-04-22T05:59:43.228Z,22.23
2023-04-22T06:02:10.003Z,21.77
2023-04-22T06:04:37.492Z,20.63
2023-04-22T06:07:04.742Z,22.83
2023-04-22T06:09:31.249Z,18.70
2023-04-22T06:11:58.093Z,19.97
2023-04-22T06:14:24.701Z,17.60
2023-04-22T06:16:52.572Z,16.47
2023-04-22T06:19:19.278Z,21.80
2023-04-22T06:21:46.029Z,16.10
2023-04-22T06:24:12.552Z,18.07
2023-04-22T06:26:39.238Z,17.43
2023-04-22T06:29:05.932Z,19.83
2023-04-22T06:31:32.609Z,16.10
2023-04-22T06:33:59.531Z,15.00
2023-04-22T06:36:30.258Z,15.70
2023-04-22T06:38:57.213Z,18.85
2023-04-22T06:41:23.932Z,12.83
2023-04-22T06:43:50.565Z,16.60
2023-04-22T06:46:17.550Z,12.03
2023-04-22T06:48:44.147Z,12.60
2023-04-22T06:51:10.741Z,12.93
2023-04-22T06:53:37.260Z,11.00
2023-04-22T06:56:04.720Z,11.47
2023-04-22T06:58:31.295Z,12.73
2023-04-22T07:00:57.870Z,11.70
2023-04-22T07:03:24.758Z,10.17
2023-04-22T07:05:51.570Z,11.27
2023-04-22T07:08:18.430Z,9.17
2023-04-22T07:10:45.375Z,9.43
2023-04-22T07:13:11.911Z,8.40
2023-04-22T07:15:38.511Z,7.97
2023-04-22T07:18:05.175Z,7.77
2023-04-22T07:20:31.663Z,6.90
2023-04-22T07:22:58.168Z,7.10
2023-04-22T07:25:27.839Z,6.73
2023-04-22T07:27:54.366Z,6.90
2023-04-22T07:30:21.191Z,6.40
2023-04-22T07:32:49.064Z,5.63
2023-04-22T07:35:15.666Z,5.78
2023-04-22T07:37:42.527Z,5.37
2023-04-22T07:40:11.670Z,5.90
2023-04-22T07:42:41.202Z,5.68
2023-04-22T07:45:08.230Z,5.50
2023-04-22T07:47:35.041Z,9.10
2023-04-22T07:50:01.842Z,5.72
2023-04-22T07:52:29.811Z,7.47
2023-04-22T07:54:56.694Z,5.57
2023-04-22T07:57:23.859Z,7.70
2023-04-22T07:59:51.652Z,5.50
2023-04-22T08:02:18.604Z,5.00
2023-04-22T08:04:45.661Z,8.32
2023-04-22T08:07:31.054Z,4.93
2023-04-22T08:09:58.778Z,5.93
2023-04-22T08:12:25.422Z,5.82
2023-04-22T08:14:52.101Z,5.10
2023-04-22T08:17:21.736Z,6.32
2023-04-22T08:19:48.974Z,5.40
2023-04-22T08:22:17.667Z,5.50
2023-04-22T08:24:44.445Z,6.15
2023-04-22T08:27:11.299Z,7.03
2023-04-22T08:29:38.368Z,4.90
2023-04-22T08:32:05.062Z,6.20
2023-04-22T08:34:31.982Z,6.20
2023-04-22T08:36:58.916Z,5.68
2023-04-22T08:39:25.578Z,5.03
2023-04-22T08:41:53.120Z,5.38
2023-04-22T08:44:20.678Z,5.03
2023-04-22T08:46:48.937Z,5.03
2023-04-22T08:49:15.847Z,6.57
2023-04-22T08:51:43.729Z,5.00
2023-04-22T08:54:11.577Z,5.72
2023-04-22T08:56:43.203Z,6.18
2023-04-22T08:59:11.426Z,7.95
2023-04-22T09:01:42.233Z,7.97
2023-04-22T09:04:15.279Z,5.18
2023-04-22T09:06:42.184Z,4.78
2023-04-22T09:09:08.836Z,7.88
2023-04-22T09:11:36.130Z,5.28
2023-04-22T09:14:06.421Z,4.90
2023-04-22T09:16:33.941Z,6.28
2023-04-22T09:19:01.163Z,5.13
2023-04-22T09:21:28.430Z,7.60
2023-04-22T09:23:56.714Z,6.05
2023-04-22T09:26:24.631Z,6.30
2023-04-22T09:28:53.063Z,5.68
2023-04-22T09:31:21.373Z,5.28
2023-04-22T09:34:00.829Z,5.43
2023-04-22T09:36:29.037Z,5.47
2023-04-22T09:39:01.782Z,6.07
2023-04-22T09:41:30.137Z,5.25
2023-04-22T09:43:58.179Z,9.20
2023-04-22T09:46:26.091Z,7.65
2023-04-22T09:48:57.475Z,4.20
2023-04-22T09:51:25.061Z,6.07
2023-04-22T09:54:04.145Z,7.80
2023-04-22T09:57:01.267Z,3.75
2023-04-22T09:59:29.700Z,3.60
2023-04-22T10:02:00.605Z,5.53
2023-04-22T10:04:28.100Z,4.22
2023-04-22T10:06:55.381Z,4.45
2023-04-22T10:09:24.069Z,7.05
2023-04-22T10:11:55.060Z,5.40
2023-04-22T10:14:22.337Z,4.00
2023-04-22T10:16:51.639Z,3.45
2023-04-22T10:19:21.689Z,5.82
2023-04-22T10:21:52.308Z,5.95
2023-04-22T10:24:19.966Z,7.03
2023-04-22T10:26:57.695Z,4.20
2023-04-22T10:29:27.107Z,5.00
2023-04-22T10:32:03.643Z,3.97
2023-04-22T10:34:34.232Z,6.43
2023-04-22T10:37:10.932Z,4.20
2023-04-22T10:39:38.710Z,5.20
2023-04-22T10:42:10.115Z,4.88
2023-04-22T10:44:48.752Z,8.13
2023-04-22T10:47:30.692Z,4.95
2023-04-22T10:50:21.469Z,4.90
2023-04-22T10:53:35.164Z,6.60
2023-04-22T10:56:03.002Z,7.03
2023-04-22T10:58:33.933Z,4.53
2023-04-22T11:01:03.000Z,4.57
2023-04-22T11:03:30.837Z,4.50
2023-04-22T11:06:17.528Z,4.75
2023-04-22T11:08:46.365Z,4.70
2023-04-22T11:11:14.118Z,4.30
2023-04-22T11:13:43.846Z,6.25
2023-04-22T11:16:10.573Z,6.75
2023-04-22T11:18:38.108Z,4.05
2023-04-22T11:21:09.278Z,5.70
2023-04-22T11:23:38.784Z,5.88
2023-04-22T11:26:06.155Z,5.30
2023-04-22T11:28:32.947Z,7.13
2023-04-22T11:31:08.004Z,5.07
2023-04-22T11:33:34.853Z,4.80
2023-04-22T11:36:02.185Z,5.07
2023-04-22T11:38:29.049Z,5.57
2023-04-22T11:40:58.221Z,5.80
2023-04-22T11:43:25.007Z,10.87
2023-04-22T11:45:51.748Z,6.30
2023-04-22T11:48:18.426Z,6.33
2023-04-22T11:50:45.392Z,6.07
2023-04-22T11:53:20.731Z,10.20
2023-04-22T11:55:53.496Z,5.33
2023-04-22T11:58:25.123Z,8.90
2023-04-22T12:00:53.004Z,5.00
2023-04-22T12:03:22.946Z,5.10
2023-04-22T12:05:57.241Z,6.83
2023-04-22T12:08:32.923Z,7.10
2023-04-22T12:11:02.250Z,5.00
2023-04-22T12:13:30.269Z,6.07
2023-04-22T12:16:00.386Z,4.93
2023-04-22T12:18:35.625Z,6.30
2023-04-22T12:21:13.025Z,8.93
2023-04-22T12:23:48.447Z,5.67
2023-04-22T12:26:17.018Z,5.80
2023-04-22T12:28:44.871Z,6.30
2023-04-22T12:31:12.256Z,7.63
2023-04-22T12:33:39.465Z,5.43
2023-04-22T12:36:07.175Z,5.57
2023-04-22T12:38:34.480Z,4.60
2023-04-22T12:41:01.990Z,4.30
2023-04-22T12:43:28.609Z,5.43
2023-04-22T12:45:55.521Z,4.77
2023-04-22T12:48:22.040Z,5.77
2023-04-22T12:50:48.541Z,5.20
2023-04-22T12:53:15.418Z,4.17
2023-04-22T12:55:43.909Z,4.50
2023-04-22T12:58:12.172Z,5.00
2023-04-22T13:00:38.695Z,5.53
2023-04-22T13:03:05.559Z,4.77
2023-04-22T13:05:32.388Z,5.17
2023-04-22T13:08:06.455Z,4.83
2023-04-22T13:10:34.045Z,5.13
2023-04-22T13:13:15.877Z,5.00
2023-04-22T13:15:43.973Z,4.97
2023-04-22T13:18:10.629Z,5.63
2023-04-22T13:20:37.242Z,5.30
2023-04-22T13:23:04.496Z,5.20
2023-04-22T13:25:31.237Z,5.43
2023-04-22T13:27:57.772Z,5.07
2023-04-22T13:30:24.366Z,5.50
2023-04-22T13:32:51.743Z,5.10
2023-04-22T13:35:18.447Z,4.87
2023-04-22T13:37:46.014Z,5.50
2023-04-22T13:40:12.679Z,5.60
2023-04-22T13:42:39.337Z,5.57
2023-04-22T13:45:06.917Z,5.43
2023-04-22T13:47:33.470Z,5.37
2023-04-22T13:50:01.492Z,5.17
2023-04-22T13:52:28.106Z,5.53
2023-04-22T13:54:54.637Z,4.83
2023-04-22T13:57:21.883Z,4.70
2023-04-22T13:59:50.337Z,4.57
2023-04-22T14:02:16.903Z,5.00
2023-04-22T14:04:43.444Z,4.80
2023-04-22T14:07:10.322Z,7.33
2023-04-22T14:09:36.851Z,4.80
2023-04-22T14:12:04.492Z,4.70
2023-04-22T14:14:31.237Z,4.67
2023-04-22T14:16:58.510Z,4.80
2023-04-22T14:19:25.996Z,4.93
2023-04-22T14:21:52.573Z,5.20
2023-04-22T14:24:19.450Z,4.60
2023-04-22T14:26:46.090Z,4.80
2023-04-22T14:29:12.701Z,5.27
2023-04-22T14:31:39.239Z,9.50
2023-04-22T14:34:05.859Z,4.90
2023-04-22T14:36:32.655Z,4.20
2023-04-22T14:38:59.204Z,4.77
2023-04-22T14:41:26.294Z,4.70
2023-04-22T14:43:52.848Z,4.30
2023-04-22T14:46:19.454Z,4.30
2023-04-22T14:48:46.152Z,4.50
2023-04-22T14:51:12.721Z,4.47
2023-04-22T14:53:40.718Z,4.23
2023-04-22T14:56:07.466Z,4.30
2023-04-22T14:58:34.012Z,4.40
2023-04-22T15:01:00.678Z,4.47
2023-04-22T15:03:27.705Z,4.40
2023-04-22T15:05:55.156Z,4.77
2023-04-22T15:08:22.151Z,4.50
2023-04-22T15:10:48.746Z,4.40
2023-04-22T15:13:15.407Z,4.90
2023-04-22T15:15:42.009Z,4.67
2023-04-22T15:18:08.896Z,4.67
2023-04-22T15:20:35.729Z,4.57
2023-04-22T15:23:02.714Z,4.70
2023-04-22T15:25:29.269Z,4.50
2023-04-22T15:27:56.777Z,4.87
2023-04-22T15:30:23.719Z,5.00
2023-04-22T15:32:50.331Z,4.80
2023-04-22T15:35:17.059Z,4.90
2023-04-22T15:37:45.142Z,5.40
2023-04-22T15:40:11.835Z,4.80
2023-04-22T15:42:38.424Z,5.00
2023-04-22T15:45:05.716Z,5.43
2023-04-22T15:47:33.158Z,4.83
2023-04-22T15:50:06.135Z,5.23
2023-04-22T15:52:33.517Z,5.53
2023-04-22T15:55:01.579Z,5.80
2023-04-22T15:57:28.610Z,5.97
2023-04-22T16:00:06.688Z,5.20
2023-04-22T16:02:36.760Z,5.57
2023-04-22T16:05:04.077Z,7.03
2023-04-22T16:07:31.321Z,6.77
2023-04-22T16:09:57.876Z,5.73
2023-04-22T16:12:24.416Z,5.83
2023-04-22T16:14:50.973Z,5.37
2023-04-22T16:17:17.711Z,5.80
2023-04-22T16:19:44.517Z,6.27
2023-04-22T16:22:11.130Z,5.37
2023-04-22T16:24:37.655Z,5.27
2023-04-22T16:27:04.235Z,5.10
2023-04-22T16:29:31.028Z,5.20
2023-04-22T16:31:57.820Z,5.50
2023-04-22T16:34:24.355Z,5.20
2023-04-22T16:36:50.983Z,5.17
2023-04-22T16:39:18.950Z,5.43
2023-04-22T16:41:45.688Z,5.90
2023-04-22T16:44:12.223Z,5.80
2023-04-22T16:46:38.837Z,5.30
2023-04-22T16:49:08.405Z,5.80
2023-04-22T16:51:36.999Z,5.60
2023-04-22T16:54:04.003Z,5.60
2023-04-22T16:56:30.566Z,5.77
2023-04-22T16:58:57.144Z,6.07
2023-04-22T17:01:24.064Z,7.77
2023-04-22T17:03:50.944Z,7.07
2023-04-22T17:06:17.729Z,6.67
2023-04-22T17:08:44.220Z,6.47
2023-04-22T17:11:11.760Z,7.23
2023-04-22T17:13:38.337Z,6.60
2023-04-22T17:16:05.217Z,6.23
2023-04-22T17:18:31.826Z,6.40
2023-04-22T17:20:58.335Z,6.77
2023-04-22T17:23:26.730Z,6.93
2023-04-22T17:25:53.250Z,7.10
2023-04-22T17:28:19.833Z,7.27
2023-04-22T17:30:46.404Z,7.07
2023-04-22T17:33:13.048Z,6.90
2023-04-22T17:35:39.725Z,6.73
2023-04-22T17:38:06.225Z,6.07
2023-04-22T17:40:32.747Z,6.50
2023-04-22T17:42:59.330Z,7.00
2023-04-22T17:45:25.902Z,6.40
2023-04-22T17:47:52.449Z,8.83
2023-04-22T17:50:19.551Z,5.20
2023-04-22T17:52:46.081Z,5.83
2023-04-22T17:55:12.601Z,7.03
2023-04-22T17:57:39.131Z,7.70
2023-04-22T18:00:06.513Z,6.70
2023-04-22T18:02:33.239Z,6.40
2023-04-22T18:04:59.874Z,6.70
2023-04-22T18:07:26.406Z,7.23
2023-04-22T18:09:53.019Z,10.80
2023-04-22T18:12:20.781Z,10.90
2023-04-22T18:14:47.700Z,11.27
2023-04-22T18:17:14.686Z,13.00
2023-04-22T18:19:41.489Z,13.67
2023-04-22T18:22:08.417Z,14.80
2023-04-22T18:24:36.210Z,15.43
2023-04-22T18:27:02.712Z,14.63
2023-04-22T18:29:29.233Z,15.37
2023-04-22T18:31:56.726Z,16.10
2023-04-22T18:34:23.464Z,14.43
2023-04-22T18:36:50.325Z,16.57
2023-04-22T18:39:17.054Z,15.73
2023-04-22T18:41:44.363Z,14.57
2023-04-22T18:44:10.915Z,17.37
2023-04-22T18:46:37.756Z,18.67
2023-04-22T18:49:04.389Z,16.13
2023-04-22T18:51:31.046Z,17.90
2023-04-22T18:53:58.235Z,15.43
2023-04-22T18:56:24.809Z,14.30
2023-04-22T18:58:51.355Z,14.20
2023-04-22T19:01:18.085Z,14.33
2023-04-22T19:03:46.009Z,15.87
2023-04-22T19:06:12.983Z,15.07
2023-04-22T19:08:39.563Z,14.87
2023-04-22T19:11:06.461Z,13.77
2023-04-22T19:13:33.267Z,16.10
2023-04-22T19:16:00.062Z,15.17
2023-04-22T19:18:26.757Z,14.87
2023-04-22T19:20:53.657Z,15.87
2023-04-22T19:23:20.258Z,16.10
2023-04-22T19:25:46.832Z,16.30
2023-04-22T19:28:13.399Z,15.50
2023-04-22T19:30:40.135Z,18.13
2023-04-22T19:33:06.961Z,17.17
2023-04-22T19:35:33.455Z,17.93
2023-04-22T19:38:01.252Z,15.63
2023-04-22T19:40:27.887Z,17.03
2023-04-22T19:42:54.693Z,16.57
2023-04-22T19:45:21.368Z,16.50
2023-04-22T19:47:48.166Z,15.90
2023-04-22T19:50:16.657Z,16.77
2023-04-22T19:52:45.874Z,16.70
2023-04-22T19:55:13.071Z,16.67
2023-04-22T19:57:42.174Z,17.43
2023-04-22T20:00:12.052Z,16.70
2023-04-22T20:02:39.276Z,17.40
2023-04-22T20:05:07.174Z,18.10
2023-04-22T20:07:34.905Z,17.33
2023-04-22T20:10:06.381Z,16.30
2023-04-22T20:12:33.340Z,17.50
2023-04-22T20:15:00.087Z,17.33
2023-04-22T20:17:27.468Z,17.57
2023-04-22T20:19:54.973Z,19.50
2023-04-22T20:22:25.200Z,16.57
2023-04-22T20:25:05.324Z,17.20
2023-04-22T20:27:32.792Z,17.07
2023-04-22T20:30:00.831Z,18.27
2023-04-22T20:32:28.346Z,17.57
2023-04-22T20:34:55.905Z,18.30
2023-04-22T20:37:24.216Z,20.73
2023-04-22T20:39:52.357Z,20.07
2023-04-22T20:42:20.150Z,19.43
2023-04-22T20:44:46.972Z,20.20
2023-04-22T20:47:14.362Z,18.33
2023-04-22T20:49:42.802Z,22.93
2023-04-22T20:52:10.802Z,22.60
2023-04-22T20:54:38.165Z,21.50
2023-04-22T20:57:05.834Z,24.40
2023-04-22T20:59:33.379Z,21.10
2023-04-22T21:02:00.595Z,21.10
2023-04-22T21:04:28.022Z,23.67
2023-04-22T21:06:55.870Z,25.17
2023-04-22T21:09:26.178Z,23.00
2023-04-22T21:11:53.307Z,23.87
2023-04-22T21:14:21.987Z,24.83
2023-04-22T21:17:14.760Z,25.93
2023-04-22T21:19:46.540Z,24.23
2023-04-22T21:22:13.751Z,24.03
2023-04-22T21:24:40.796Z,27.37
2023-04-22T21:27:08.150Z,22.77
2023-04-22T21:29:34.981Z,24.00
2023-04-22T21:32:09.315Z,25.27
2023-04-22T21:34:37.025Z,24.53
2023-04-22T21:37:04.944Z,24.67
2023-04-22T21:39:31.577Z,25.70
2023-04-22T21:41:58.419Z,28.10
2023-04-22T21:44:25.207Z,25.47
2023-04-22T21:46:51.741Z,27.90
2023-04-22T21:49:20.292Z,27.73
2023-04-22T21:51:47.004Z,25.30
2023-04-22T21:54:13.544Z,28.07
2023-04-22T21:56:40.132Z,27.37
2023-04-22T21:59:06.670Z,26.87
2023-04-22T22:01:33.267Z,29.37
2023-04-22T22:04:00.034Z,29.40
2023-04-22T22:06:26.940Z,28.67
2023-04-22T22:08:54.501Z,29.40
2023-04-22T22:11:30.232Z,30.47
2023-04-22T22:13:57.791Z,28.53
2023-04-22T22:16:24.590Z,34.17
2023-04-22T22:18:51.742Z,31.20
2023-04-22T22:21:18.556Z,32.80
2023-04-22T22:23:45.116Z,29.77
2023-04-22T22:26:11.720Z,33.13
2023-04-22T22:28:38.801Z,32.87
2023-04-22T22:31:05.625Z,29.07
2023-04-22T22:33:32.123Z,31.77
2023-04-22T22:35:58.686Z,30.07
2023-04-22T22:38:25.299Z,32.23
2023-04-22T22:40:51.825Z,30.57
2023-04-22T22:43:18.349Z,32.30
2023-04-22T22:45:45.464Z,33.20
2023-04-22T22:48:12.033Z,31.57
2023-04-22T22:50:39.731Z,33.97
2023-04-22T22:53:06.273Z,34.53
2023-04-22T22:55:33.918Z,34.70
2023-04-22T22:58:00.695Z,36.53
2023-04-22T23:00:27.420Z,41.43
2023-04-22T23:02:54.401Z,37.93
2023-04-22T23:05:21.750Z,38.03
2023-04-22T23:07:48.332Z,40.67
2023-04-22T23:10:15.009Z,42.07
2023-04-22T23:12:41.503Z,38.70
2023-04-22T23:15:08.700Z,42.50
2023-04-22T23:17:36.649Z,38.33
2023-04-22T23:20:04.326Z,42.17
2023-04-22T23:22:31.952Z,40.37
2023-04-22T23:24:58.846Z,47.43
2023-04-22T23:27:25.715Z,44.30
2023-04-22T23:29:52.588Z,46.83
2023-04-22T23:32:19.791Z,42.43
2023-04-22T23:34:49.466Z,41.33
2023-04-22T23:37:18.950Z,45.73
2023-04-22T23:39:45.580Z,43.17
2023-04-22T23:42:12.141Z,45.00
2023-04-22T23:44:38.912Z,49.57
2023-04-22T23:47:05.899Z,49.90
2023-04-22T23:49:32.544Z,42.20
2023-04-22T23:51:59.410Z,43.07
2023-04-22T23:54:26.443Z,42.40
2023-04-22T23:56:53.429Z,40.90
2023-04-22T23:59:20.117Z,43.73
